• Join FlightAware (Why Join?)
  • Login
  • US Flag 
05:08PM EST


 

Airport Tracker/Info


-or-


 

Live Flight TrackerFlight Track Log ✈ SWA3681 ✈ 17-Apr-2013 ✈ KELP - KLAS

Flight Track Log - Related Links

Times and Time Zones

All times are in EDT time to prevent confusion due to time zone crossing. See the SWA3681 flight status page for this flight to view local times or setup timezone preferences in your user account.

Time Position Orientation Groundspeed Altitude Reporting Facility
EDT Latitude Longitude Course Direction KTS MPH feet Rate Location/Type
11:19AM 31.7950 -106.4222 253° West 194 223 5,400  Level Albuquerque Center
11:19AM 31.7814 -106.4481 238° Southwest 213 245 6,300 3,360 Climbing Albuquerque Center
11:20AM 31.7642 -106.4872 243° Southwest 233 268 8,800 3,240 Climbing Albuquerque Center
11:20AM 31.7672 -106.5136 278° West 217 250 9,700 1,320 Climbing Albuquerque Center
11:21AM 31.8114 -106.5908 304° West 278 320 11,000 1,980 Climbing Albuquerque Center
11:22AM 31.8819 -106.6961 308° West 340 391 13,800 2,220 Climbing Albuquerque Center
11:23AM 31.9467 -106.7861 310° West 358 412 15,700 1,980 Climbing Albuquerque Center
11:24AM 32.0136 -106.8800 310° West 372 428 17,900 1,860 Climbing Albuquerque Center
11:25AM 32.0878 -106.9733 313° West 385 443 19,600 1,500 Climbing Albuquerque Center
11:26AM 32.1781 -107.0778 316° Northwest 403 464 21,000 960 Climbing Albuquerque Center
11:27AM 32.2672 -107.1772 317° Northwest 408 470 21,700 960 Climbing Albuquerque Center
11:28AM 32.3481 -107.2739 315° West 415 478 23,100 1,380 Climbing Albuquerque Center
11:29AM 32.4344 -107.3697 317° Northwest 424 488 24,600 1,740 Climbing Albuquerque Center
11:30AM 32.5203 -107.4672 316° Northwest 430 495 26,700 2,400 Climbing Albuquerque Center
11:31AM 32.6169 -107.5636 320° Northwest 417 480 29,600 3,240 Climbing Albuquerque Center
11:33AM 32.6936 -107.6383 321° Northwest 369 425 33,500 2,100 Climbing Albuquerque Center
11:34AM 32.7622 -107.7089 319° Northwest 331 381 34,000 240 Climbing Albuquerque Center
11:35AM 32.8356 -107.7808 321° Northwest 337 388 34,000  Level Albuquerque Center
11:36AM 32.9067 -107.8511 320° Northwest 335 386 34,000  Level Albuquerque Center
11:37AM 32.9767 -107.9211 320° Northwest 330 380 34,000  Level Albuquerque Center
11:38AM 33.0589 -108.0042 320° Northwest 325 374 34,000  Level Albuquerque Center
11:39AM 33.1267 -108.0725 320° Northwest 322 371 34,000  Level Albuquerque Center
11:40AM 33.1931 -108.1431 318° Northwest 320 368 34,000  Level Albuquerque Center
11:41AM 33.2572 -108.2139 317° Northwest 321 369 34,000  Level Albuquerque Center
11:42AM 33.3139 -108.2931 311° West 319 367 34,000  Level Albuquerque Center
11:43AM 33.3719 -108.3756 310° West 325 374 34,000  Level Albuquerque Center
11:44AM 33.4447 -108.4739 312° West 331 381 34,000  Level Albuquerque Center
11:45AM 33.5053 -108.5583 311° West 336 387 34,000  Level Albuquerque Center
11:46AM 33.5672 -108.6444 311° West 344 396 34,000  Level Albuquerque Center
11:47AM 33.6300 -108.7319 311° West 348 400 34,000  Level Albuquerque Center
11:48AM 33.7039 -108.8375 310° West 348 400 34,000  Level Albuquerque Center
11:49AM 33.7656 -108.9244 310° West 349 402 34,000  Level Albuquerque Center
11:50AM 33.8272 -109.0103 311° West 345 397 34,000  Level Albuquerque Center
11:51AM 33.8889 -109.0967 311° West 345 397 34,000  Level Albuquerque Center
11:52AM 33.9508 -109.1842 310° West 345 397 34,000  Level Albuquerque Center
11:53AM 34.0242 -109.2883 310° West 344 396 34,000  Level Albuquerque Center
11:54AM 34.0861 -109.3764 310° West 346 398 34,000  Level Albuquerque Center
11:55AM 34.1511 -109.4686 310° West 344 396 34,000  Level Albuquerque Center
11:56AM 34.2106 -109.5533 310° West 344 396 34,000  Level Albuquerque Center
11:57AM 34.2803 -109.6544 310° West 348 400 34,000  Level Albuquerque Center
11:58AM 34.3383 -109.7383 310° West 343 395 34,000  Level Albuquerque Center
11:59AM 34.4067 -109.8339 311° West 339 390 34,000  Level Albuquerque Center
12:00PM 34.4636 -109.9186 309° West 338 389 34,000  Level Albuquerque Center
12:01PM 34.5219 -110.0028 310° West 338 389 34,000  Level Albuquerque Center
12:02PM 34.5892 -110.1011 310° West 339 390 34,000  Level Albuquerque Center
12:03PM 34.6489 -110.1875 310° West 344 396 34,000  Level Albuquerque Center
12:04PM 34.7161 -110.2856 310° West 341 392 34,000  Level Albuquerque Center
12:05PM 34.7750 -110.3706 310° West 341 392 34,000  Level Albuquerque Center
12:07PM 34.8444 -110.4728 310° West 346 398 34,000  Level Albuquerque Center
12:08PM 34.9042 -110.5606 310° West 349 402 34,000  Level Albuquerque Center
12:09PM 34.9739 -110.6639 309° West 352 405 34,000  Level Albuquerque Center
12:10PM 35.0136 -110.7558 298° West 360 414 34,000  Level Albuquerque Center
12:11PM 35.0367 -110.8611 285° West 336 387 34,000  Level Albuquerque Center
12:12PM 35.0661 -110.9858 286° West 333 383 34,000  Level Albuquerque Center
12:13PM 35.0931 -111.1044 286° West 341 392 34,000  Level Albuquerque Center
12:14PM 35.1189 -111.2153 286° West 343 395 34,000  Level Albuquerque Center
12:15PM 35.1431 -111.3242 285° West 336 387 34,000  Level Albuquerque Center
12:16PM 35.1686 -111.4356 286° West 339 390 34,000  Level Albuquerque Center
12:17PM 35.1928 -111.5439 285° West 335 386 34,000 -1,140 Level Albuquerque Center
12:18PM 35.2236 -111.6800 286° West 344 396 31,700 -1,980 Descending Albuquerque Center
12:19PM 35.2486 -111.7975 285° West 348 400 30,000 -840 Descending Albuquerque Center
12:20PM 35.2742 -111.9117 285° West 349 402 30,000  Level Albuquerque Center
12:21PM 35.3011 -112.0308 286° West 359 413 30,000  Level Albuquerque Center
12:22PM 35.3269 -112.1494 285° West 362 417 30,000  Level Albuquerque Center
12:23PM 35.3536 -112.2675 286° West 362 417 30,000  Level Albuquerque Center
12:24PM 35.3794 -112.3883 285° West 367 422 30,000  Level Los Angeles Center
12:25PM 35.4061 -112.5122 285° West 374 430 30,000 -60 Level Los Angeles Center
12:26PM 35.4322 -112.6319 285° West 377 434 29,900 -660 Descending Los Angeles Center
12:27PM 35.4644 -112.7792 285° West 376 433 28,700 -960 Descending Los Angeles Center
12:28PM 35.4908 -112.9003 285° West 369 425 28,000 -360 Descending Los Angeles Center
12:29PM 35.5178 -113.0364 284° West 381 438 28,000  Level Los Angeles Center
12:30PM 35.5447 -113.1611 285° West 380 437 28,000  Level Los Angeles Center
12:31PM 35.5681 -113.2719 285° West 378 435 28,000 -120 Level Los Angeles Center
12:32PM 35.5997 -113.4233 284° West 384 442 27,800 -960 Descending Los Angeles Center
12:33PM 35.6247 -113.5428 284° West 367 422 26,100 -1,860 Descending Los Angeles Center
12:34PM 35.6411 -113.6597 280° West 351 404 24,000 -2,160 Descending Los Angeles Center
12:35PM 35.6575 -113.7731 280° West 341 392 21,700 -2,160 Descending Los Angeles Center
12:36PM 35.6728 -113.8844 280° West 333 383 19,600 -1,800 Descending Los Angeles Center
12:37PM 35.6917 -114.0125 280° West 321 369 18,100 -1,500 Descending Los Angeles Center
12:39PM 35.7056 -114.1200 279° West 320 368 16,300 -1,800 Descending Los Angeles Center
12:39PM 35.7103 -114.1639 278° West 320 368 15,500 -2,640 Descending Los Angeles Center
12:39PM 35.7239 -114.2150 288° West 318 366 14,600 -1,800 Descending Los Angeles Center
12:40PM 35.7228 -114.2414 267° West 313 360 14,100 -1,920 Descending Los Angeles Center
12:40PM 35.7367 -114.3194 282° West 314 361 12,700 -1,800 Descending Los Angeles Center
12:41PM 35.7369 -114.3453 271° West 309 356 12,300 -720 Descending Los Angeles Center
12:41PM 35.7758 -114.3967 313° West 285 328 12,000 -300 Descending Los Angeles Center
12:42PM 35.8019 -114.4117 335° Northwest 263 303 12,000 -240 Level Los Angeles Center
12:42PM 35.8417 -114.4300 339° North 255 293 11,800 -540 Descending Los Angeles Center
12:43PM 35.8539 -114.4353 341° North 254 292 11,500 -1,200 Descending Los Angeles Center
12:43PM 35.8975 -114.4564 339° North 224 258 10,600 -1,380 Descending Los Angeles Center
12:44PM 35.9206 -114.4664 341° North 219 252 10,100 -1,380 Descending Los Angeles Center
12:44PM 35.9506 -114.4811 338° Northwest 214 246 9,400 -1,080 Descending Los Angeles Center
12:45PM 35.9761 -114.4931 339° North 215 247 9,000 -780 Descending Los Angeles Center
12:45PM 36.0036 -114.5056 340° North 220 253 8,700 -900 Descending Los Angeles Center
12:46PM 36.0333 -114.5208 337° Northwest 219 252 8,100 -660 Descending Los Angeles Center
12:46PM 36.0408 -114.5650 282° West 229 264 8,000 -120 Descending Los Angeles Center
12:47PM 36.0425 -114.5967 274° West 224 258 8,000  Level Los Angeles Center
12:47PM 36.0469 -114.6322 279° West 227 261 8,000  Level Los Angeles Center
12:48PM 36.0506 -114.6942 274° West 233 268 8,000  Level Los Angeles Center
12:48PM 36.0522 -114.7236 274° West 235 270 8,000  Level Los Angeles Center
12:49PM 36.0556 -114.7714 275° West 230 265 8,000 -180 Level Los Angeles Center
12:49PM 36.0594 -114.8064 278° West 228 262 7,800 -1,560 Descending Los Angeles Center
12:50PM 36.0619 -114.8489 274° West 227 261 6,400 -2,280 Descending Los Angeles Center
12:50PM 36.0644 -114.8872 275° West 242 278 5,800 -1,020 Descending Los Angeles Center
12:51PM 36.0675 -114.9347 275° West 237 273 5,400 -1,200 Descending Los Angeles Center
12:51PM 36.0703 -114.9733 275° West 224 258 4,500 -1,200 Descending Los Angeles Center
12:52PM 36.0731 -115.0058 276° West 228 262 4,200 -900 Descending Los Angeles Center
12:53PM 36.0739 -115.0386 272° West 165 190 3,500 -1,020 Descending Los Angeles Center
12:53PM 36.0736 -115.0556 269° West 178 205 3,200 -780 Descending Los Angeles Center
12:53PM 36.0731 -115.0842 269° West 142 163 2,800 -780 Descending Los Angeles Center
12:54PM 36.0742 -115.1058 274° West 157 181 2,400 -600 Descending Los Angeles Center
12:56PM 36.0667 -115.1500 270° West  Level FlightAware Approximate
01:03PM 36.0801 -115.1523 270° West  Level Estimated